Historique des mesures à Cassis (13260), France
Quotidien Résumé Janvier 3, 2020 Unités:  US    Métrique   Métrique/US
Quotidien Hebdomadaire Mensuel Annuel
  Maximum: Minimum: Moyenne:
Température: 84.6 °F 72.5 °F 77.9 °F
Point de rosée: 60.8 °F 46.9 °F 54.9 °F
Humidité: 60% 31% 46%
Vitesse du vent: 19.7mph 3.4mph 7.5mph
Rafales: 31.6mph - -
Vent- - WSW
Pression: 29.7 in 29.6 in -
Précipitations: 0 in    
Historical Graphs
 
 
Mesures pour : Janvier 3, 2020
Heure Temperature Point de rosée Pression Vent Vitesse du vent Rafales Humidité Pluie (par heure)
00:11 79.3 °F 60.3 °F 29.7 in North 5.3 mph 14.1 mph 52% 0 in
01:11 77.9 °F 59.9 °F 29.7 in NW 4.7 mph 12.3 mph 54% 0 in
02:11 76.6 °F 60.8 °F 29.7 in North 5.8 mph 11.2 mph 58% 0 in
03:11 75.6 °F 60.8 °F 29.7 in WNW 7 mph 11.9 mph 60% 0 in
04:11 75 °F 60.3 °F 29.7 in NNW 5.8 mph 19.9 mph 60% 0 in
05:11 74.8 °F 59.5 °F 29.7 in NNW 6.3 mph 15.9 mph 59% 0 in
06:11 74.1 °F 58.8 °F 29.7 in NNW 3.4 mph 13.4 mph 59% 0 in
07:11 73.8 °F 57.9 °F 29.7 in NNW 7.1 mph 10.3 mph 58% 0 in
08:11 73.8 °F 57 °F 29.7 in WNW 5.3 mph 10.3 mph 56% 0 in
09:11 74.5 °F 57.2 °F 29.7 in NW 3.8 mph 15.9 mph 55% 0 in
10:11 76.3 °F 57.9 °F 29.7 in NNW 7.8 mph 18.8 mph 53% 0 in
11:11 75.9 °F 56.5 °F 29.7 in NW 10.7 mph 19.3 mph 51% 0 in
12:11 80.8 °F 56.1 °F 29.7 in North 5.3 mph 23.9 mph 43% 0 in
13:11 82 °F 54.7 °F 29.7 in North 4.2 mph 24.4 mph 39% 0 in
14:11 83.3 °F 51.8 °F 29.7 in NNW 9.2 mph 25.3 mph 34% 0 in
15:11 84 °F 53.2 °F 29.7 in WSW 9.4 mph 26.2 mph 35% 0 in
16:11 84.6 °F 52.2 °F 29.6 in WNW 7.6 mph 19 mph 33% 0 in
17:11 83.8 °F 50.7 °F 29.6 in NNW 5.8 mph 23.5 mph 32% 0 in
18:11 82.9 °F 50.7 °F 29.6 in NW 6.3 mph 22.1 mph 33% 0 in
19:11 81.3 °F 47.8 °F 29.6 in North 8.5 mph 22.8 mph 31% 0 in
20:11 78.6 °F 48.6 °F 29.6 in NNW 7.4 mph 22.6 mph 35% 0 in
21:11 75.6 °F 49.6 °F 29.7 in NW 10.7 mph 31.6 mph 40% 0 in
22:11 73.9 °F 47.5 °F 29.7 in WNW 19.7 mph 30.9 mph 39% 0 in
23:11 72.5 °F 46.9 °F 29.7 in NW 11.6 mph 23.1 mph 40% 0 in
Observations météo à CASSIS
WU-History script by Weather Underground - 2 mb